createdAt,value
2022-10-31T00:03:57.217Z,101964.97
2022-10-31T00:07:58.904Z,101965.56
2022-10-31T00:12:00.637Z,101964.72
2022-10-31T00:16:02.298Z,101962.19
2022-10-31T00:20:04.308Z,101972.06
2022-10-31T00:24:06.513Z,101976.72
2022-10-31T00:28:11.422Z,101974.03
2022-10-31T00:32:13.160Z,101978.56
2022-10-31T00:36:18.590Z,101980.41
2022-10-31T00:40:20.402Z,101976.00
2022-10-31T00:44:22.132Z,101978.00
2022-10-31T00:48:23.845Z,101974.63
2022-10-31T00:52:25.731Z,101981.69
2022-10-31T00:56:27.405Z,101985.88
2022-10-31T01:00:29.203Z,101989.56
2022-10-31T01:04:31.394Z,101985.88
2022-10-31T01:08:33.740Z,101982.25
2022-10-31T01:12:43.313Z,101979.00
2022-10-31T01:16:45.071Z,101959.56
2022-10-31T01:20:46.819Z,101964.53
2022-10-31T01:24:52.230Z,101962.41
2022-10-31T01:28:57.595Z,101963.72
2022-10-31T01:32:59.641Z,101963.16
2022-10-31T01:37:01.742Z,101966.28
2022-10-31T01:41:03.578Z,101952.47
2022-10-31T01:45:06.398Z,101953.59
2022-10-31T01:49:19.597Z,101953.03
2022-10-31T01:53:25.884Z,101941.06
2022-10-31T01:57:30.358Z,101942.91
2022-10-31T02:01:32.267Z,101941.22
2022-10-31T02:05:34.950Z,101936.16
2022-10-31T02:09:38.580Z,101942.63
2022-10-31T02:13:40.364Z,101946.31
2022-10-31T02:17:43.453Z,101942.97
2022-10-31T02:21:57.507Z,101935.06
2022-10-31T02:26:20.466Z,101939.56
2022-10-31T02:30:25.136Z,101940.69
2022-10-31T02:34:44.684Z,101940.69
2022-10-31T02:39:14.641Z,101935.63
2022-10-31T02:43:27.008Z,101936.91
2022-10-31T02:47:33.268Z,101939.19
2022-10-31T02:51:35.796Z,101934.28
2022-10-31T02:55:38.821Z,101934.56
2022-10-31T02:59:48.788Z,101935.69
2022-10-31T03:04:08.915Z,101926.81
2022-10-31T03:08:24.701Z,101925.25
2022-10-31T03:12:48.647Z,101920.22
2022-10-31T03:16:54.189Z,101929.22
2022-10-31T03:21:11.057Z,101925.84
2022-10-31T03:25:14.879Z,101938.22
2022-10-31T03:29:19.865Z,101931.19
2022-10-31T03:33:28.341Z,101933.16
2022-10-31T03:37:35.039Z,101936.25
2022-10-31T03:41:42.649Z,101938.38
2022-10-31T03:45:47.743Z,101941.34
2022-10-31T03:49:49.989Z,101931.47
2022-10-31T03:54:03.167Z,101939.66
2022-10-31T03:58:09.528Z,101939.94
2022-10-31T04:02:17.224Z,101933.75
2022-10-31T04:06:20.305Z,101935.56
2022-10-31T04:10:25.449Z,101941.03
2022-10-31T04:14:35.524Z,101933.19
2022-10-31T04:18:37.325Z,101939.66
2022-10-31T04:22:39.096Z,101945.88
2022-10-31T04:26:40.820Z,101939.81
2022-10-31T04:30:42.596Z,101934.72
2022-10-31T04:34:44.512Z,101943.88
2022-10-31T04:38:46.631Z,101944.19
2022-10-31T04:43:02.270Z,101935.72
2022-10-31T04:47:04.659Z,101940.50
2022-10-31T04:51:06.445Z,101936.84
2022-10-31T04:55:09.168Z,101937.81
2022-10-31T04:59:29.352Z,101926.44
2022-10-31T05:03:31.044Z,101921.38
2022-10-31T05:07:32.726Z,101932.06
2022-10-31T05:11:34.795Z,101932.91
2022-10-31T05:15:50.793Z,101923.31
2022-10-31T05:20:31.172Z,101919.13
2022-10-31T05:24:51.249Z,101924.75
2022-10-31T05:28:53.196Z,101919.56
2022-10-31T05:32:55.779Z,101912.50
2022-10-31T05:37:15.750Z,101908.16
2022-10-31T05:41:17.442Z,101914.75
2022-10-31T05:45:23.394Z,101906.16
2022-10-31T05:49:32.749Z,101901.94
2022-10-31T05:53:53.056Z,101896.19
2022-10-31T05:57:56.253Z,101903.63
2022-10-31T06:01:58.014Z,101895.19
2022-10-31T06:06:22.513Z,101892.91
2022-10-31T06:10:25.461Z,101903.59
2022-10-31T06:14:29.846Z,101902.63
2022-10-31T06:18:33.207Z,101906.41
2022-10-31T06:22:35.896Z,101901.91
2022-10-31T06:26:37.589Z,101902.75
2022-10-31T06:30:39.410Z,101896.31
2022-10-31T06:34:42.318Z,101908.94
2022-10-31T06:38:44.650Z,101911.63
2022-10-31T06:42:47.603Z,101911.03
2022-10-31T06:46:49.836Z,101905.84
2022-10-31T06:51:10.367Z,101905.59
2022-10-31T06:55:12.737Z,101900.94
2022-10-31T06:59:15.419Z,101905.00
2022-10-31T07:03:43.458Z,101909.41
2022-10-31T07:07:45.176Z,101920.50
2022-10-31T07:11:48.072Z,101927.25
2022-10-31T07:15:50.417Z,101927.81
2022-10-31T07:19:52.501Z,101926.72
2022-10-31T07:23:54.324Z,101935.41
2022-10-31T07:28:14.803Z,101932.34
2022-10-31T07:32:20.686Z,101932.19
2022-10-31T07:36:28.402Z,101934.59
2022-10-31T07:40:34.830Z,101930.66
2022-10-31T07:44:37.977Z,101935.72
2022-10-31T07:48:58.054Z,101936.56
2022-10-31T07:53:18.292Z,101940.78
2022-10-31T07:57:34.964Z,101935.88
2022-10-31T08:01:36.912Z,101936.28
2022-10-31T08:06:07.738Z,101936.84
2022-10-31T08:10:33.499Z,101927.97
2022-10-31T08:14:35.305Z,101931.38
2022-10-31T08:18:38.602Z,101932.06
2022-10-31T08:22:44.045Z,101929.25
2022-10-31T08:26:46.570Z,101930.66
2022-10-31T08:30:48.516Z,101925.88
2022-10-31T08:35:25.469Z,101934.03
2022-10-31T08:39:59.169Z,101931.06
2022-10-31T08:44:00.941Z,101930.47
2022-10-31T08:48:05.785Z,101928.94
2022-10-31T08:52:12.030Z,101919.34
2022-10-31T08:56:16.569Z,101906.06
2022-10-31T09:00:19.166Z,101911.97
2022-10-31T09:04:31.722Z,101914.78
2022-10-31T09:08:34.121Z,101915.03
2022-10-31T09:12:37.104Z,101914.47
2022-10-31T09:17:04.854Z,101901.19
2022-10-31T09:21:24.012Z,101889.63
2022-10-31T09:25:26.310Z,101876.19
2022-10-31T09:29:48.007Z,101873.47
2022-10-31T09:33:49.869Z,101872.56
2022-10-31T09:38:17.556Z,101873.34
2022-10-31T09:42:42.794Z,101853.00
2022-10-31T09:47:00.115Z,101856.88
2022-10-31T09:51:11.940Z,101859.97
2022-10-31T09:55:28.945Z,101850.63
2022-10-31T09:59:41.003Z,101854.22
2022-10-31T10:03:50.423Z,101853.31
2022-10-31T10:08:21.351Z,101848.66
2022-10-31T10:13:28.088Z,101839.53
2022-10-31T10:17:32.913Z,101838.22
2022-10-31T10:21:34.497Z,101826.19
2022-10-31T10:25:40.850Z,101830.09
2022-10-31T10:29:51.801Z,101829.47
2022-10-31T10:34:17.745Z,101813.38
2022-10-31T10:38:24.896Z,101800.63
2022-10-31T10:42:47.347Z,101801.16
2022-10-31T10:47:18.884Z,101796.00
2022-10-31T10:52:13.168Z,101780.16
2022-10-31T10:56:30.052Z,101767.94
2022-10-31T11:00:37.338Z,101754.84
2022-10-31T11:04:41.141Z,101757.06
2022-10-31T11:08:42.809Z,101760.63
2022-10-31T11:12:47.173Z,101754.28
2022-10-31T11:16:54.830Z,101756.00
2022-10-31T11:20:59.175Z,101753.00
2022-10-31T11:25:00.943Z,101751.84
2022-10-31T11:29:05.375Z,101749.69
2022-10-31T11:33:07.068Z,101743.47
2022-10-31T11:37:18.063Z,101731.56
2022-10-31T11:41:27.679Z,101723.84
2022-10-31T11:45:34.705Z,101722.50
2022-10-31T11:49:40.015Z,101721.50
2022-10-31T11:53:56.780Z,101711.09
2022-10-31T11:58:02.601Z,101697.97
2022-10-31T12:02:19.650Z,101685.19
2022-10-31T12:06:34.441Z,101697.28
2022-10-31T12:10:56.396Z,101685.91
2022-10-31T12:15:27.620Z,101678.66
2022-10-31T12:19:36.618Z,101659.00
2022-10-31T12:23:50.151Z,101648.59
2022-10-31T12:28:10.074Z,101639.34
2022-10-31T12:32:41.599Z,101625.59
2022-10-31T12:37:02.088Z,101605.22
2022-10-31T12:41:25.646Z,101587.41
2022-10-31T12:45:55.791Z,101570.09
2022-10-31T12:50:42.791Z,101558.19
2022-10-31T12:54:48.083Z,101559.03
2022-10-31T12:59:00.617Z,101550.78
2022-10-31T13:03:10.628Z,101546.44
2022-10-31T13:07:19.037Z,101533.63
2022-10-31T13:11:28.709Z,101518.19
2022-10-31T13:15:36.218Z,101513.28
2022-10-31T13:19:45.946Z,101497.81
2022-10-31T13:23:52.464Z,101497.31
2022-10-31T13:27:56.434Z,101491.56
2022-10-31T13:31:58.303Z,101476.94
2022-10-31T13:36:12.118Z,101487.53
2022-10-31T13:40:23.824Z,101476.56
2022-10-31T13:44:27.844Z,101463.97
2022-10-31T13:48:29.451Z,101459.25
2022-10-31T13:52:31.138Z,101453.88
2022-10-31T13:56:35.315Z,101451.19
2022-10-31T14:00:37.457Z,101448.31
2022-10-31T14:04:47.021Z,101426.13
2022-10-31T14:08:52.351Z,101437.06
2022-10-31T14:13:04.193Z,101428.34
2022-10-31T14:17:06.925Z,101413.06
2022-10-31T14:21:30.549Z,101400.44
2022-10-31T14:25:36.856Z,101388.66
2022-10-31T14:29:38.531Z,101372.34
2022-10-31T14:33:43.584Z,101365.97
2022-10-31T14:38:06.427Z,101367.81
2022-10-31T14:42:14.083Z,101361.41
2022-10-31T14:46:51.952Z,101356.03
2022-10-31T14:50:56.977Z,101344.44
2022-10-31T14:55:01.619Z,101334.69
2022-10-31T14:59:10.070Z,101320.59
2022-10-31T15:03:23.223Z,101311.69
2022-10-31T15:07:27.232Z,101304.66
2022-10-31T15:11:28.943Z,101290.34
2022-10-31T15:15:31.617Z,101292.22
2022-10-31T15:19:35.293Z,101289.72
2022-10-31T15:23:37.049Z,101279.13
2022-10-31T15:27:41.581Z,101275.78
2022-10-31T15:31:58.760Z,101265.19
2022-10-31T15:36:02.353Z,101258.34
2022-10-31T15:40:15.312Z,101258.53
2022-10-31T15:44:20.705Z,101247.97
2022-10-31T15:48:26.136Z,101239.41
2022-10-31T15:52:47.096Z,101226.19
2022-10-31T15:56:50.171Z,101225.50
2022-10-31T16:01:25.577Z,101233.91
2022-10-31T16:05:53.717Z,101226.03
2022-10-31T16:10:03.890Z,101240.66
2022-10-31T16:14:25.194Z,101220.34
2022-10-31T16:18:30.376Z,101214.31
2022-10-31T16:22:42.115Z,101194.00
2022-10-31T16:26:49.212Z,101186.13
2022-10-31T16:30:56.001Z,101184.66
2022-10-31T16:35:10.323Z,101183.16
2022-10-31T16:39:12.292Z,101179.81
2022-10-31T16:43:15.883Z,101164.88
2022-10-31T16:47:20.328Z,101157.03
2022-10-31T16:51:23.854Z,101154.50
2022-10-31T16:55:26.522Z,101151.16
2022-10-31T16:59:28.683Z,101154.03
2022-10-31T17:03:31.267Z,101156.91
2022-10-31T17:07:32.953Z,101159.78
2022-10-31T17:11:35.363Z,101157.25
2022-10-31T17:15:48.473Z,101146.88
2022-10-31T17:19:50.344Z,101124.91
2022-10-31T17:23:52.328Z,101112.03
2022-10-31T17:27:54.284Z,101102.66
2022-10-31T17:31:56.088Z,101095.31
2022-10-31T17:35:57.779Z,101090.69
2022-10-31T17:39:59.491Z,101081.50
2022-10-31T17:44:01.374Z,101073.16
2022-10-31T17:48:03.091Z,101067.50
2022-10-31T17:52:05.112Z,101069.72
2022-10-31T17:56:08.821Z,101072.75
2022-10-31T18:00:14.376Z,101090.88
2022-10-31T18:04:16.213Z,101081.34
2022-10-31T18:08:17.877Z,101086.88
2022-10-31T18:12:19.700Z,101075.50
2022-10-31T18:16:21.499Z,101059.56
2022-10-31T18:20:23.485Z,101047.34
2022-10-31T18:24:25.268Z,101036.13
2022-10-31T18:28:27.204Z,101032.97
2022-10-31T18:32:28.815Z,101024.25
2022-10-31T18:36:30.521Z,101020.94
2022-10-31T18:40:33.619Z,101007.69
2022-10-31T18:44:35.379Z,101015.09
2022-10-31T18:48:37.262Z,101011.56
2022-10-31T18:52:39.063Z,101008.88
2022-10-31T18:56:40.773Z,101005.19
2022-10-31T19:00:42.680Z,101004.84
2022-10-31T19:04:44.569Z,101000.09
2022-10-31T19:08:46.309Z,100993.38
2022-10-31T19:12:48.001Z,100980.41
2022-10-31T19:16:52.421Z,100970.34
2022-10-31T19:20:54.408Z,100967.47
2022-10-31T19:24:56.187Z,100960.09
2022-10-31T19:28:57.909Z,100956.38
2022-10-31T19:32:59.657Z,100953.50
2022-10-31T19:37:01.328Z,100960.56
2022-10-31T19:41:06.442Z,100953.34
2022-10-31T19:45:08.459Z,100950.66
2022-10-31T19:49:13.732Z,100940.91
2022-10-31T19:53:15.382Z,100943.59
2022-10-31T19:57:17.280Z,100936.22
2022-10-31T20:01:23.333Z,100932.69
2022-10-31T20:05:25.174Z,100924.63
2022-10-31T20:09:26.874Z,100924.63
2022-10-31T20:13:30.792Z,100927.50
2022-10-31T20:17:32.484Z,100924.16
2022-10-31T20:21:38.930Z,100917.97
2022-10-31T20:25:50.232Z,100910.09
2022-10-31T20:29:51.980Z,100901.41
2022-10-31T20:33:54.389Z,100891.69
2022-10-31T20:37:56.580Z,100886.50
2022-10-31T20:41:58.267Z,100880.28
2022-10-31T20:46:06.632Z,100878.28
2022-10-31T20:50:08.806Z,100874.56
2022-10-31T20:54:13.009Z,100864.84
2022-10-31T20:58:14.764Z,100863.81
2022-10-31T21:02:16.524Z,100850.56
2022-10-31T21:06:19.710Z,100850.41
2022-10-31T21:10:21.369Z,100846.06
2022-10-31T21:14:23.041Z,100841.53
2022-10-31T21:18:24.683Z,100835.34
2022-10-31T21:22:26.443Z,100821.25
2022-10-31T21:26:30.569Z,100822.28
2022-10-31T21:30:32.322Z,100811.72
2022-10-31T21:34:33.999Z,100812.38
2022-10-31T21:38:36.325Z,100808.66
2022-10-31T21:42:38.053Z,100805.97
2022-10-31T21:46:40.111Z,100805.81
2022-10-31T21:50:41.806Z,100803.97
2022-10-31T21:54:43.476Z,100806.63
2022-10-31T21:58:45.302Z,100804.78
2022-10-31T22:02:46.952Z,100797.75
2022-10-31T22:06:48.747Z,100794.06
2022-10-31T22:10:50.433Z,100790.34
2022-10-31T22:14:52.134Z,100786.63
2022-10-31T22:18:56.504Z,100799.88
2022-10-31T22:22:58.207Z,100793.28
2022-10-31T22:27:00.069Z,100777.66
2022-10-31T22:31:06.455Z,100769.06
2022-10-31T22:35:08.529Z,100765.34
2022-10-31T22:39:13.231Z,100754.41
2022-10-31T22:43:14.901Z,100747.84
2022-10-31T22:47:16.574Z,100737.75
2022-10-31T22:51:24.546Z,100735.91
2022-10-31T22:55:26.282Z,100725.16
2022-10-31T22:59:27.971Z,100727.84
2022-10-31T23:03:29.611Z,100728.84
2022-10-31T23:07:32.997Z,100706.53
2022-10-31T23:11:38.509Z,100697.66
2022-10-31T23:15:40.172Z,100687.94
2022-10-31T23:19:41.881Z,100679.91
2022-10-31T23:23:43.595Z,100677.22
2022-10-31T23:27:45.309Z,100661.94
2022-10-31T23:31:48.100Z,100660.91
2022-10-31T23:35:49.913Z,100654.72
2022-10-31T23:39:51.668Z,100649.78
2022-10-31T23:43:53.344Z,100647.09
2022-10-31T23:47:55.039Z,100645.06
2022-10-31T23:51:56.723Z,100649.03
2022-10-31T23:55:58.459Z,100657.72
